Time;durP1;ratioP1;P1;durP2;ratioP2;P2;SDS_P1;SDS_P2;PMS_P1;PMS_P2;Temp;Humidity;BMP_temperature;BMP_pressure;BME280_temperature;BME280_humidity;BME280_pressure;Samples;Min_cycle;Max_cycle;Signal;HPM_P1;HPM_P2
2021/07/28 00:00:31;;;;;;;18.80;12.05;;;16.60;96.80;;;;;;4979657;28;20042;-54
2021/07/28 00:02:56;;;;;;;17.10;12.07;;;16.60;96.80;;;;;;4985436;28;20042;-54
2021/07/28 00:05:22;;;;;;;18.55;12.77;;;16.60;97.00;;;;;;4980618;28;20053;-54
2021/07/28 00:07:48;;;;;;;15.88;11.93;;;16.50;96.80;;;;;;4991521;28;20046;-54
2021/07/28 00:10:13;;;;;;;15.90;11.75;;;16.50;96.80;;;;;;4988058;28;20479;-54
2021/07/28 00:12:39;;;;;;;16.15;12.35;;;16.50;96.80;;;;;;4982703;28;20044;-53
2021/07/28 00:15:07;;;;;;;15.90;12.20;;;16.40;96.70;;;;;;4965541;28;20527;-54
2021/07/28 00:17:34;;;;;;;15.52;12.48;;;16.50;96.80;;;;;;4990788;28;20283;-54
2021/07/28 00:20:04;;;;;;;19.02;13.02;;;16.40;96.70;;;;;;4978897;28;20074;-53
2021/07/28 00:25:23;;;;;;;18.70;13.65;;;16.40;96.80;;;;;;4986132;28;20503;-54
2021/07/28 00:27:51;;;;;;;18.42;12.57;;;16.30;96.70;;;;;;4974887;28;20050;-52
2021/07/28 00:30:17;;;;;;;18.67;13.98;;;16.40;96.80;;;;;;4980433;28;20038;-53
2021/07/28 00:32:43;;;;;;;17.90;12.98;;;16.40;96.90;;;;;;4982875;28;20109;-54
2021/07/28 00:35:09;;;;;;;18.88;13.40;;;16.40;97.00;;;;;;4988372;28;20035;-53
2021/07/28 00:37:35;;;;;;;18.67;12.10;;;16.30;96.90;;;;;;4987285;28;20042;-53
2021/07/28 00:40:01;;;;;;;19.63;13.85;;;16.30;97.00;;;;;;4986987;28;20039;-54
2021/07/28 00:42:27;;;;;;;20.92;14.00;;;16.30;97.00;;;;;;4982247;28;20074;-54
2021/07/28 00:44:53;;;;;;;19.05;13.20;;;16.30;97.00;;;;;;4975755;28;20054;-51
2021/07/28 00:47:18;;;;;;;20.73;13.90;;;16.30;97.10;;;;;;4986336;28;20043;-54
2021/07/28 00:49:45;;;;;;;18.80;12.98;;;16.30;97.00;;;;;;4991908;28;20050;-54
2021/07/28 00:52:10;;;;;;;17.92;13.35;;;16.30;97.10;;;;;;4977964;28;20466;-53
2021/07/28 00:54:36;;;;;;;17.05;13.35;;;16.30;97.10;;;;;;4977351;28;20078;-54
2021/07/28 00:57:02;;;;;;;18.25;14.02;;;16.30;97.20;;;;;;4975900;28;20043;-54
2021/07/28 00:59:28;;;;;;;19.75;13.80;;;16.30;97.10;;;;;;4980813;28;20070;-51
2021/07/28 01:01:53;;;;;;;21.65;14.50;;;16.30;97.20;;;;;;4977625;28;20043;-54
2021/07/28 01:04:20;;;;;;;21.88;15.07;;;16.30;97.20;;;;;;4992828;28;20034;-54
2021/07/28 01:06:46;;;;;;;19.42;13.68;;;16.20;97.20;;;;;;4998147;28;20048;-54
2021/07/28 01:09:12;;;;;;;21.92;13.93;;;16.20;97.20;;;;;;4977590;28;20414;-54
2021/07/28 01:11:37;;;;;;;21.35;14.23;;;16.20;97.30;;;;;;4977389;28;20415;-54
2021/07/28 01:14:05;;;;;;;19.10;13.63;;;16.20;97.30;;;;;;4980091;28;20105;-53
2021/07/28 01:16:36;;;;;;;22.85;14.77;;;16.20;97.40;;;;;;4987944;28;20073;-51
2021/07/28 01:19:07;;;;;;;19.30;13.50;;;16.20;97.30;;;;;;4979170;28;20047;-53
2021/07/28 01:21:33;;;;;;;20.00;13.88;;;16.20;97.30;;;;;;4987474;28;20093;-51
2021/07/28 01:24:00;;;;;;;22.23;14.65;;;16.20;97.40;;;;;;4982386;28;20154;-49
2021/07/28 01:26:26;;;;;;;21.38;14.77;;;16.10;97.30;;;;;;4976414;28;20034;-52
2021/07/28 01:28:53;;;;;;;22.05;14.82;;;16.10;97.30;;;;;;4978800;28;20038;-52
2021/07/28 01:31:19;;;;;;;23.42;15.52;;;16.10;97.40;;;;;;4988819;28;20073;-51
2021/07/28 01:33:47;;;;;;;22.20;15.35;;;16.10;97.40;;;;;;4992749;28;20054;-51
2021/07/28 01:36:18;;;;;;;19.88;14.25;;;16.10;97.40;;;;;;4993344;28;20053;-52
2021/07/28 01:38:44;;;;;;;22.38;15.70;;;16.10;97.40;;;;;;4984710;28;20526;-50
2021/07/28 01:41:10;;;;;;;24.13;16.23;;;16.10;97.50;;;;;;4982047;28;20043;-53
2021/07/28 01:43:36;;;;;;;22.30;16.25;;;16.10;97.40;;;;;;4981514;28;20046;-52
2021/07/28 01:46:03;;;;;;;21.38;15.65;;;16.10;97.50;;;;;;4986232;28;20074;-53
2021/07/28 01:48:29;;;;;;;21.40;15.43;;;16.10;97.50;;;;;;4982396;28;20092;-50
2021/07/28 01:50:56;;;;;;;24.15;15.02;;;16.10;97.50;;;;;;4986764;28;20077;-51
2021/07/28 01:53:23;;;;;;;21.50;14.73;;;16.10;97.50;;;;;;4985512;28;20101;-50
2021/07/28 01:55:49;;;;;;;19.20;14.02;;;16.00;97.40;;;;;;4976021;28;20435;-54
2021/07/28 01:58:14;;;;;;;23.73;14.77;;;16.00;97.50;;;;;;4976370;28;20396;-53
2021/07/28 02:00:41;;;;;;;28.00;16.27;;;16.00;97.40;;;;;;4977723;28;20044;-54
2021/07/28 02:03:07;;;;;;;20.85;14.95;;;16.00;97.50;;;;;;4978251;28;20478;-52
2021/07/28 02:05:35;;;;;;;22.33;15.07;;;16.00;97.50;;;;;;4983757;28;20047;-52
2021/07/28 02:08:03;;;;;;;22.98;15.55;;;16.00;97.50;;;;;;4972427;28;20039;-52
2021/07/28 02:10:30;;;;;;;22.80;15.82;;;15.90;97.40;;;;;;4976639;28;20042;-50
2021/07/28 02:12:57;;;;;;;24.00;16.52;;;15.90;97.40;;;;;;4978905;28;20109;-52
2021/07/28 02:15:23;;;;;;;24.98;15.43;;;15.90;97.50;;;;;;4974322;28;20050;-52
2021/07/28 02:17:50;;;;;;;25.38;16.55;;;15.90;97.50;;;;;;4978404;28;20042;-54
2021/07/28 02:20:16;;;;;;;20.83;15.35;;;15.90;97.50;;;;;;4972643;28;20047;-53
2021/07/28 02:22:42;;;;;;;21.95;15.40;;;15.90;97.40;;;;;;4979909;28;20383;-50
2021/07/28 02:25:09;;;;;;;25.23;16.80;;;15.90;97.50;;;;;;4985217;28;20057;-52
2021/07/28 02:27:35;;;;;;;26.73;16.20;;;15.90;97.50;;;;;;4994225;28;20569;-52
2021/07/28 02:30:00;;;;;;;26.60;16.67;;;15.90;97.50;;;;;;4989021;28;20145;-52
2021/07/28 02:32:27;;;;;;;22.60;16.65;;;15.80;97.50;;;;;;4986200;28;20054;-51
2021/07/28 02:34:53;;;;;;;27.50;16.80;;;15.80;97.50;;;;;;4974003;28;20426;-50
2021/07/28 02:37:19;;;;;;;21.45;15.95;;;15.80;97.40;;;;;;4990899;28;20133;-55
2021/07/28 02:39:44;;;;;;;23.27;15.55;;;15.80;97.50;;;;;;4984650;28;20081;-56
2021/07/28 02:42:10;;;;;;;23.55;16.25;;;15.80;97.50;;;;;;4975632;28;20133;-51
2021/07/28 02:44:36;;;;;;;27.15;17.27;;;15.80;97.50;;;;;;4974162;28;20046;-52
2021/07/28 02:47:01;;;;;;;24.80;16.70;;;15.70;97.40;;;;;;4976761;28;20043;-52
2021/07/28 02:49:27;;;;;;;28.60;18.02;;;15.70;97.50;;;;;;4972334;28;20043;-50
2021/07/28 02:51:53;;;;;;;27.15;17.17;;;15.70;97.50;;;;;;4984853;28;20085;-55
2021/07/28 02:54:21;;;;;;;25.40;17.05;;;15.70;97.50;;;;;;4972104;28;20487;-52
2021/07/28 02:56:48;;;;;;;26.02;16.40;;;15.70;97.60;;;;;;4976352;28;20069;-52
2021/07/28 02:59:13;;;;;;;25.55;17.20;;;15.70;97.60;;;;;;4974363;28;20043;-49
2021/07/28 03:01:39;;;;;;;25.92;17.17;;;15.70;97.50;;;;;;4983009;28;20057;-52
2021/07/28 03:04:05;;;;;;;26.92;17.20;;;15.70;97.60;;;;;;4975849;28;20109;-49
2021/07/28 03:06:31;;;;;;;29.88;16.95;;;15.70;97.60;;;;;;4977470;28;20046;-50
2021/07/28 03:08:57;;;;;;;27.55;17.13;;;15.70;97.70;;;;;;4981713;28;20042;-49
2021/07/28 03:11:23;;;;;;;26.38;17.67;;;15.70;97.70;;;;;;4983954;28;20425;-51
2021/07/28 03:13:48;;;;;;;25.35;16.90;;;15.70;97.60;;;;;;4983505;28;20505;-53
2021/07/28 03:16:14;;;;;;;26.02;17.05;;;15.60;97.50;;;;;;4977182;28;20063;-51
2021/07/28 03:18:40;;;;;;;31.60;16.42;;;15.60;97.60;;;;;;4978166;28;20039;-50
2021/07/28 03:21:06;;;;;;;29.67;17.48;;;15.60;97.60;;;;;;4979237;28;20040;-52
2021/07/28 03:23:31;;;;;;;25.55;16.35;;;15.60;97.70;;;;;;4956216;28;20144;-49
2021/07/28 03:25:57;;;;;;;26.20;17.27;;;15.60;97.70;;;;;;4988685;28;20134;-52
2021/07/28 03:28:23;;;;;;;29.48;16.75;;;15.60;97.70;;;;;;4979455;28;20058;-50
2021/07/28 03:30:51;;;;;;;30.02;18.58;;;15.60;97.80;;;;;;4993675;28;20045;-52
2021/07/28 03:33:17;;;;;;;29.88;18.30;;;15.60;97.70;;;;;;4980036;28;20070;-52
2021/07/28 03:35:43;;;;;;;25.98;17.23;;;15.50;97.70;;;;;;4994544;28;20050;-50
2021/07/28 03:38:12;;;;;;;28.25;17.02;;;15.50;97.80;;;;;;4980765;28;20492;-50
2021/07/28 03:40:38;;;;;;;26.55;17.63;;;15.50;97.70;;;;;;4974875;28;20105;-49
2021/07/28 03:43:07;;;;;;;25.48;17.27;;;15.50;97.80;;;;;;4981201;28;20574;-52
2021/07/28 03:45:33;;;;;;;27.80;17.52;;;15.50;97.90;;;;;;4976212;28;20066;-52
2021/07/28 03:47:59;;;;;;;21.75;16.40;;;15.50;97.90;;;;;;4983623;28;20514;-51
2021/07/28 03:50:25;;;;;;;26.17;17.30;;;15.50;97.80;;;;;;4977762;28;20046;-48
2021/07/28 03:52:51;;;;;;;25.35;16.83;;;15.50;97.90;;;;;;4974664;28;20101;-49
2021/07/28 03:55:17;;;;;;;30.10;19.30;;;15.50;97.90;;;;;;4975646;28;20050;-53
2021/07/28 03:57:42;;;;;;;29.20;18.00;;;15.50;97.90;;;;;;4974898;28;20244;-49
2021/07/28 04:00:09;;;;;;;30.02;17.30;;;15.50;97.90;;;;;;4974032;28;20053;-49
2021/07/28 04:02:34;;;;;;;25.65;17.23;;;15.50;98.00;;;;;;4974492;28;20463;-49
2021/07/28 04:05:02;;;;;;;27.08;16.60;;;15.50;97.90;;;;;;4979618;28;20082;-51
2021/07/28 04:07:28;;;;;;;25.70;18.00;;;15.50;98.00;;;;;;4975460;28;20051;-52
2021/07/28 04:09:53;;;;;;;26.65;17.63;;;15.50;97.90;;;;;;4982399;28;20055;-52
2021/07/28 04:12:21;;;;;;;29.20;18.33;;;15.50;97.90;;;;;;4982324;28;20038;-52
2021/07/28 04:14:47;;;;;;;27.08;17.58;;;15.50;97.90;;;;;;4983896;28;20089;-51
2021/07/28 04:17:14;;;;;;;27.02;17.42;;;15.50;97.90;;;;;;4979482;28;20101;-51
2021/07/28 04:19:43;;;;;;;30.80;18.52;;;15.50;97.90;;;;;;4974690;28;20039;-53
2021/07/28 04:22:09;;;;;;;28.15;18.05;;;15.50;97.90;;;;;;4974940;28;20150;-52
2021/07/28 04:24:35;;;;;;;28.75;17.85;;;15.50;97.90;;;;;;4989807;28;20105;-51
2021/07/28 04:27:01;;;;;;;31.70;19.50;;;15.50;97.90;;;;;;4983582;28;20386;-52
2021/07/28 04:29:27;;;;;;;30.42;18.70;;;15.60;98.10;;;;;;4988427;28;20133;-50
2021/07/28 04:31:53;;;;;;;27.58;19.27;;;15.60;98.00;;;;;;4992193;28;20580;-52
2021/07/28 04:34:20;;;;;;;29.42;19.05;;;15.60;98.00;;;;;;4991173;28;20054;-52
2021/07/28 04:36:46;;;;;;;36.33;21.10;;;15.70;98.20;;;;;;4991082;28;20125;-52
2021/07/28 04:39:11;;;;;;;32.85;19.33;;;15.70;98.30;;;;;;4992698;28;20322;-52
2021/07/28 04:41:37;;;;;;;33.30;21.67;;;15.70;98.20;;;;;;4988940;28;20042;-51
2021/07/28 04:44:04;;;;;;;32.70;20.45;;;15.80;98.20;;;;;;4984198;28;20046;-52
2021/07/28 04:46:30;;;;;;;34.33;21.67;;;15.80;98.20;;;;;;4976578;28;20400;-49
2021/07/28 04:48:55;;;;;;;34.00;22.10;;;15.80;98.10;;;;;;4975985;28;20093;-51
2021/07/28 04:51:21;;;;;;;37.60;21.10;;;15.80;98.10;;;;;;4983440;28;20046;-52
2021/07/28 04:53:47;;;;;;;31.40;21.00;;;15.90;98.10;;;;;;4973272;28;20042;-51
2021/07/28 04:56:13;;;;;;;39.33;23.30;;;15.90;98.20;;;;;;4980148;28;20050;-54
2021/07/28 04:58:38;;;;;;;36.72;22.00;;;15.90;98.20;;;;;;4981243;28;20057;-52
2021/07/28 05:01:04;;;;;;;32.80;21.17;;;16.00;98.20;;;;;;4978808;28;20113;-51
2021/07/28 05:03:30;;;;;;;32.10;21.48;;;16.00;98.30;;;;;;4974390;28;20426;-49
2021/07/28 05:05:55;;;;;;;32.08;22.10;;;16.00;98.40;;;;;;4985426;28;20590;-50
2021/07/28 05:08:21;;;;;;;30.75;20.80;;;16.10;98.40;;;;;;4975428;28;20043;-51
2021/07/28 05:10:48;;;;;;;34.72;22.00;;;16.10;98.30;;;;;;4974781;28;20127;-52
2021/07/28 05:13:14;;;;;;;35.92;22.02;;;16.10;98.30;;;;;;4985247;28;20031;-52
2021/07/28 05:15:40;;;;;;;34.75;21.70;;;16.10;98.30;;;;;;4978902;28;20073;-49
2021/07/28 05:18:05;;;;;;;35.30;21.98;;;16.20;98.50;;;;;;4982188;28;20046;-51
2021/07/28 05:20:31;;;;;;;33.72;22.42;;;16.20;98.40;;;;;;4988935;28;20042;-54
2021/07/28 05:22:57;;;;;;;37.22;23.60;;;16.20;98.60;;;;;;4983156;28;20046;-50
2021/07/28 05:25:22;;;;;;;36.90;22.40;;;16.20;98.40;;;;;;4978367;28;20482;-51
2021/07/28 05:27:48;;;;;;;36.20;24.50;;;16.20;98.30;;;;;;4981547;28;20051;-51
2021/07/28 05:30:14;;;;;;;37.25;23.15;;;16.30;98.50;;;;;;4987237;28;20392;-53
2021/07/28 05:32:40;;;;;;;36.88;23.27;;;16.30;98.70;;;;;;4988812;28;20046;-52
2021/07/28 05:35:06;;;;;;;34.78;22.73;;;16.30;98.40;;;;;;4985332;28;20034;-52
2021/07/28 05:37:33;;;;;;;35.65;23.20;;;16.30;98.50;;;;;;4968300;28;20138;-50
2021/07/28 05:39:58;;;;;;;35.17;23.23;;;16.30;98.40;;;;;;4987993;28;20231;-49
2021/07/28 05:42:24;;;;;;;36.08;22.95;;;16.30;98.40;;;;;;4991593;28;20054;-49
2021/07/28 05:44:49;;;;;;;36.90;23.60;;;16.30;98.40;;;;;;4983217;28;20504;-53
2021/07/28 05:47:15;;;;;;;34.03;23.25;;;16.30;98.30;;;;;;4977544;28;20072;-50
2021/07/28 05:49:41;;;;;;;36.13;23.35;;;16.30;98.30;;;;;;4979080;28;20069;-51
2021/07/28 05:52:07;;;;;;;34.90;22.60;;;16.40;98.30;;;;;;4970060;28;20039;-54
2021/07/28 05:54:33;;;;;;;32.67;23.17;;;16.40;98.30;;;;;;4987012;28;20050;-52
2021/07/28 05:56:58;;;;;;;38.88;23.27;;;16.40;98.40;;;;;;4989701;28;20089;-50
2021/07/28 05:59:24;;;;;;;34.88;24.05;;;16.50;98.40;;;;;;4989923;28;20046;-51
2021/07/28 06:01:50;;;;;;;35.22;23.08;;;16.50;98.40;;;;;;4990499;28;20038;-51
2021/07/28 06:04:15;;;;;;;38.78;23.63;;;16.50;98.40;;;;;;4986795;28;20066;-49
2021/07/28 06:06:41;;;;;;;36.10;23.95;;;16.50;98.40;;;;;;4989701;28;20038;-52
2021/07/28 06:09:07;;;;;;;30.73;22.08;;;16.60;98.40;;;;;;4989167;28;20518;-52
2021/07/28 06:11:32;;;;;;;31.73;22.70;;;16.60;98.30;;;;;;4988128;28;20046;-52
2021/07/28 06:13:58;;;;;;;35.45;23.88;;;16.60;98.30;;;;;;4989455;28;20038;-49
2021/07/28 06:16:23;;;;;;;38.50;24.27;;;16.60;98.30;;;;;;4985807;28;20402;-50
2021/07/28 06:18:49;;;;;;;34.92;23.75;;;16.70;98.40;;;;;;4988687;28;20057;-55
2021/07/28 06:21:15;;;;;;;29.80;21.85;;;16.70;98.30;;;;;;4988280;28;20088;-53
2021/07/28 06:23:41;;;;;;;27.90;20.83;;;16.70;98.20;;;;;;4989503;28;20042;-51
2021/07/28 06:26:07;;;;;;;31.23;21.38;;;16.70;98.20;;;;;;4987984;28;20085;-53
2021/07/28 06:28:33;;;;;;;30.15;21.45;;;16.70;98.10;;;;;;4988517;28;20042;-54
2021/07/28 06:30:59;;;;;;;28.10;21.13;;;16.80;98.20;;;;;;4988214;28;20043;-52
2021/07/28 06:33:25;;;;;;;28.33;21.45;;;16.80;98.00;;;;;;4987452;28;20062;-54
2021/07/28 06:35:53;;;;;;;29.08;20.70;;;16.80;98.00;;;;;;4988408;28;20042;-52
2021/07/28 06:38:21;;;;;;;32.55;21.95;;;16.80;98.00;;;;;;4987512;28;20100;-54
2021/07/28 06:40:47;;;;;;;28.42;19.55;;;16.70;97.90;;;;;;4992261;28;20125;-53
2021/07/28 06:43:13;;;;;;;31.63;21.65;;;16.80;98.00;;;;;;4993618;28;20529;-51
2021/07/28 06:45:39;;;;;;;30.65;21.60;;;16.80;98.00;;;;;;4989032;28;20039;-52
2021/07/28 06:48:05;;;;;;;29.33;21.40;;;16.80;98.00;;;;;;4988607;28;20049;-52
2021/07/28 06:50:31;;;;;;;29.73;21.58;;;16.90;98.10;;;;;;4990870;28;20487;-51
2021/07/28 06:52:57;;;;;;;31.42;22.33;;;16.90;98.00;;;;;;4992597;28;20066;-52
2021/07/28 06:55:23;;;;;;;31.63;22.17;;;16.90;98.10;;;;;;4990399;28;20113;-52
2021/07/28 06:57:48;;;;;;;33.15;21.60;;;16.90;98.00;;;;;;4993254;28;20039;-50
2021/07/28 07:00:14;;;;;;;31.85;21.30;;;17.00;98.20;;;;;;4993706;28;20056;-50
2021/07/28 07:02:40;;;;;;;32.55;22.42;;;17.00;98.00;;;;;;4979439;28;20145;-51
2021/07/28 07:05:06;;;;;;;31.15;21.92;;;17.00;97.90;;;;;;4986197;28;20173;-53
2021/07/28 07:07:32;;;;;;;34.38;22.25;;;17.00;97.80;;;;;;4984741;28;20455;-49
2021/07/28 07:09:58;;;;;;;36.25;23.40;;;17.00;97.80;;;;;;4989460;28;20042;-53
2021/07/28 07:12:23;;;;;;;31.45;21.85;;;17.10;97.80;;;;;;4981466;28;20545;-53
2021/07/28 07:14:49;;;;;;;34.80;22.55;;;17.10;97.80;;;;;;4983210;28;20069;-53
2021/07/28 07:17:15;;;;;;;34.40;22.63;;;17.10;97.80;;;;;;4960734;28;20109;-49
2021/07/28 07:19:42;;;;;;;32.38;22.60;;;17.20;97.80;;;;;;4968742;28;20049;-52
2021/07/28 07:22:09;;;;;;;35.60;23.25;;;17.20;97.80;;;;;;4984737;28;20049;-50
2021/07/28 07:24:35;;;;;;;33.83;23.48;;;17.20;97.80;;;;;;4981618;28;20097;-50
2021/07/28 07:27:01;;;;;;;32.25;23.23;;;17.30;97.70;;;;;;4983296;28;20125;-55
2021/07/28 07:29:27;;;;;;;30.30;21.98;;;17.30;97.60;;;;;;4986637;28;20129;-50
2021/07/28 07:31:53;;;;;;;31.42;22.85;;;17.40;97.70;;;;;;4984982;28;20046;-52
2021/07/28 07:34:19;;;;;;;33.92;23.02;;;17.40;97.60;;;;;;4974779;28;20043;-52
2021/07/28 07:36:44;;;;;;;30.88;23.13;;;17.50;97.60;;;;;;4984993;28;20039;-54
2021/07/28 07:39:10;;;;;;;31.33;21.08;;;17.50;97.50;;;;;;4981417;28;20494;-51
2021/07/28 07:41:36;;;;;;;30.52;21.98;;;17.60;97.30;;;;;;4976108;28;20442;-51
2021/07/28 07:44:02;;;;;;;31.67;23.42;;;17.60;97.20;;;;;;4982569;28;20050;-49
2021/07/28 07:46:28;;;;;;;36.97;23.20;;;17.60;97.40;;;;;;4981667;28;20101;-49
2021/07/28 07:48:55;;;;;;;31.70;21.60;;;17.60;97.20;;;;;;4987363;28;20042;-49
2021/07/28 07:51:22;;;;;;;34.92;21.70;;;17.70;97.20;;;;;;4969275;28;20062;-52
2021/07/28 07:53:47;;;;;;;32.67;21.83;;;17.70;97.10;;;;;;4987273;28;20438;-49
2021/07/28 07:56:13;;;;;;;36.28;22.17;;;17.80;96.90;;;;;;4991897;28;20050;-50
2021/07/28 07:58:39;;;;;;;33.70;22.30;;;17.80;96.90;;;;;;4960054;28;20082;-52
2021/07/28 08:01:06;;;;;;;30.20;20.83;;;17.80;96.90;;;;;;4979465;28;20050;-52
2021/07/28 08:03:32;;;;;;;28.10;19.95;;;17.80;96.80;;;;;;4985300;28;20066;-52
2021/07/28 08:05:57;;;;;;;25.65;19.67;;;17.70;96.60;;;;;;4989364;28;20451;-49
2021/07/28 08:08:23;;;;;;;26.42;19.80;;;17.70;96.50;;;;;;4978358;28;20074;-52
2021/07/28 08:10:48;;;;;;;30.10;20.50;;;17.70;96.50;;;;;;4992164;28;20046;-50
2021/07/28 08:13:14;;;;;;;27.85;21.08;;;17.70;96.40;;;;;;4975339;28;20096;-51
2021/07/28 08:15:40;;;;;;;28.75;20.05;;;17.70;96.40;;;;;;4980876;28;20074;-50
2021/07/28 08:18:06;;;;;;;25.13;19.63;;;17.70;96.40;;;;;;4983787;28;20043;-52
2021/07/28 08:20:32;;;;;;;28.00;20.80;;;17.70;96.40;;;;;;4992246;28;20054;-53
2021/07/28 08:22:58;;;;;;;25.95;19.25;;;17.90;96.40;;;;;;4986300;28;20513;-52
2021/07/28 08:25:24;;;;;;;29.17;19.80;;;18.10;96.50;;;;;;4988461;28;20070;-54
2021/07/28 08:27:49;;;;;;;25.88;20.30;;;18.30;96.30;;;;;;4993073;28;20129;-50
2021/07/28 08:30:15;;;;;;;23.00;18.58;;;18.50;96.00;;;;;;4986139;28;20073;-54
2021/07/28 08:32:41;;;;;;;24.75;18.45;;;18.70;95.60;;;;;;4982336;28;20414;-50
2021/07/28 08:35:08;;;;;;;21.65;16.90;;;18.80;94.90;;;;;;4984969;28;20130;-52
2021/07/28 08:37:33;;;;;;;20.00;15.73;;;19.00;95.00;;;;;;4996092;28;20133;-52
2021/07/28 08:39:59;;;;;;;17.50;14.35;;;19.00;94.30;;;;;;4980313;28;20126;-49
2021/07/28 08:42:29;;;;;;;18.75;14.20;;;19.00;93.60;;;;;;4958350;28;20210;-52
2021/07/28 08:44:54;;;;;;;16.13;14.00;;;19.00;93.40;;;;;;4975941;28;20049;-49
2021/07/28 08:47:20;;;;;;;18.60;14.50;;;19.00;93.30;;;;;;4985694;28;20414;-52
2021/07/28 08:49:46;;;;;;;17.75;14.00;;;19.10;92.70;;;;;;4982120;28;20039;-53
2021/07/28 08:52:13;;;;;;;20.05;13.65;;;19.10;92.90;;;;;;4980391;28;20093;-52
2021/07/28 08:54:38;;;;;;;16.65;12.43;;;19.10;92.90;;;;;;4980100;28;20047;-52
2021/07/28 08:57:10;;;;;;;17.05;12.48;;;19.20;92.50;;;;;;4980360;28;20051;-52
2021/07/28 08:59:36;;;;;;;18.40;13.47;;;19.10;92.10;;;;;;4991062;28;20137;-55
2021/07/28 09:02:01;;;;;;;16.48;13.65;;;19.10;92.10;;;;;;4991908;28;20126;-49
2021/07/28 09:04:28;;;;;;;17.27;14.27;;;19.20;91.90;;;;;;4996439;28;20163;-51
2021/07/28 09:06:54;;;;;;;16.52;12.93;;;19.20;92.00;;;;;;4990375;28;20046;-52
2021/07/28 09:09:20;;;;;;;19.30;13.85;;;19.40;91.80;;;;;;4993209;28;20046;-52
2021/07/28 09:11:57;;;;;;;19.15;13.60;;;19.40;91.60;;;;;;4991337;28;20129;-52
2021/07/28 09:14:27;;;;;;;17.20;13.35;;;19.50;91.40;;;;;;4992737;28;20035;-52
2021/07/28 09:16:53;;;;;;;15.45;13.50;;;19.50;91.10;;;;;;4979032;28;20046;-52
2021/07/28 09:19:41;;;;;;;17.38;13.60;;;19.60;91.30;;;;;;4990927;28;20077;-52
2021/07/28 09:22:10;;;;;;;18.23;13.18;;;19.70;91.20;;;;;;4987606;28;20066;-52
2021/07/28 09:24:37;;;;;;;16.20;13.85;;;19.90;90.80;;;;;;4982393;28;20133;-51
2021/07/28 09:27:03;;;;;;;16.58;12.95;;;20.00;90.60;;;;;;4991502;28;20672;-51
2021/07/28 09:29:30;;;;;;;15.93;12.27;;;20.20;90.50;;;;;;4991847;28;20116;-52
2021/07/28 09:32:04;;;;;;;16.52;12.20;;;20.30;90.20;;;;;;4987536;28;20042;-50
2021/07/28 09:34:37;;;;;;;16.00;11.98;;;20.40;89.20;;;;;;4978707;28;20043;-52
2021/07/28 09:37:07;;;;;;;16.27;12.40;;;20.50;88.60;;;;;;4987217;28;20113;-49
2021/07/28 09:39:35;;;;;;;13.77;11.15;;;20.50;87.80;;;;;;4991589;28;20046;-49
2021/07/28 09:42:14;;;;;;;14.10;10.52;;;20.60;87.30;;;;;;4981141;28;20035;-52
2021/07/28 09:44:45;;;;;;;15.43;10.50;;;20.60;87.20;;;;;;4972535;28;20046;-53
2021/07/28 09:47:19;;;;;;;13.65;9.70;;;20.60;86.20;;;;;;4991162;28;20044;-51
2021/07/28 09:49:46;;;;;;;12.13;9.57;;;20.80;82.50;;;;;;4991983;28;20125;-51
2021/07/28 09:52:34;;;;;;;12.50;10.25;;;20.90;84.70;;;;;;4990882;28;20149;-52
2021/07/28 09:55:21;;;;;;;14.20;9.55;;;21.00;84.50;;;;;;4988370;28;20049;-53
2021/07/28 09:57:55;;;;;;;12.75;9.90;;;21.10;84.90;;;;;;4991782;28;20050;-49
2021/07/28 10:00:21;;;;;;;15.02;10.68;;;21.20;84.50;;;;;;4991211;28;20108;-50
2021/07/28 10:02:47;;;;;;;16.60;11.20;;;21.40;84.50;;;;;;4992303;28;20457;-51
2021/07/28 10:05:17;;;;;;;14.25;10.60;;;21.50;84.30;;;;;;5000578;28;20076;-49
2021/07/28 10:07:43;;;;;;;12.50;10.20;;;21.50;84.00;;;;;;4988362;28;20042;-50
2021/07/28 10:10:11;;;;;;;11.93;10.48;;;21.40;83.00;;;;;;4988858;28;20423;-50
2021/07/28 10:12:38;;;;;;;10.25;9.15;;;21.30;82.70;;;;;;4982757;28;20089;-51
2021/07/28 10:15:08;;;;;;;16.15;9.68;;;21.20;83.10;;;;;;4985530;28;20050;-49
2021/07/28 10:17:41;;;;;;;12.93;9.55;;;21.00;83.90;;;;;;4984229;28;20097;-50
2021/07/28 10:20:12;;;;;;;10.50;9.10;;;20.90;83.60;;;;;;4971959;28;20074;-49
2021/07/28 10:22:39;;;;;;;10.70;9.10;;;20.80;84.20;;;;;;4979380;28;20061;-49
2021/07/28 10:25:08;;;;;;;12.68;9.40;;;20.70;84.70;;;;;;4988374;28;20073;-53
2021/07/28 10:27:48;;;;;;;11.43;8.93;;;20.50;85.30;;;;;;4978056;28;20046;-52
2021/07/28 10:30:14;;;;;;;10.00;7.90;;;20.40;85.50;;;;;;4991371;28;20513;-52
2021/07/28 10:32:41;;;;;;;11.90;7.78;;;20.30;85.80;;;;;;4978016;28;20043;-52
2021/07/28 10:35:30;;;;;;;10.43;7.75;;;20.30;85.90;;;;;;4970385;28;20045;-51
2021/07/28 10:38:01;;;;;;;10.80;7.47;;;20.20;85.80;;;;;;4984017;28;20515;-52
2021/07/28 10:40:27;;;;;;;9.88;7.32;;;20.20;86.40;;;;;;4978025;28;20506;-52
2021/07/28 10:42:55;;;;;;;9.77;7.40;;;20.10;86.70;;;;;;4977789;28;20057;-49
2021/07/28 10:45:22;;;;;;;14.00;7.00;;;20.00;86.90;;;;;;4984419;28;20419;-53
2021/07/28 10:47:50;;;;;;;11.80;7.80;;;19.90;87.30;;;;;;4977768;28;20097;-52
2021/07/28 10:50:22;;;;;;;10.38;7.80;;;19.80;87.40;;;;;;4974633;28;20042;-52
2021/07/28 10:52:50;;;;;;;13.10;8.35;;;19.80;88.00;;;;;;4979866;28;20039;-52
2021/07/28 10:55:21;;;;;;;12.52;7.90;;;19.60;88.90;;;;;;4979211;28;20043;-52
2021/07/28 10:57:56;;;;;;;9.73;7.65;;;19.50;89.60;;;;;;4976069;28;20101;-54
2021/07/28 11:00:39;;;;;;;9.88;8.15;;;19.40;90.20;;;;;;4977810;28;20054;-52
2021/07/28 11:03:08;;;;;;;9.35;7.43;;;19.20;90.60;;;;;;4991348;28;20046;-52
2021/07/28 11:05:34;;;;;;;11.27;8.10;;;19.10;90.90;;;;;;4985340;28;20082;-51
2021/07/28 11:08:05;;;;;;;9.88;8.35;;;19.10;91.10;;;;;;4991176;28;20052;-52
2021/07/28 11:10:35;;;;;;;11.03;7.00;;;19.10;91.30;;;;;;4977538;28;20049;-52
2021/07/28 11:13:15;;;;;;;9.65;7.32;;;19.00;91.20;;;;;;4991412;28;20047;-52
2021/07/28 11:15:56;;;;;;;11.93;7.35;;;19.10;91.00;;;;;;4978756;28;20039;-51
2021/07/28 11:18:34;;;;;;;8.85;6.80;;;19.10;91.00;;;;;;4977477;28;20104;-52
2021/07/28 11:21:10;;;;;;;9.73;5.60;;;19.20;90.70;;;;;;4977857;28;20050;-52
2021/07/28 11:23:36;;;;;;;7.10;5.55;;;19.20;89.80;;;;;;4975543;28;20423;-52
2021/07/28 11:26:11;;;;;;;9.93;6.03;;;19.10;90.30;;;;;;4976337;28;20046;-50
2021/07/28 11:28:36;;;;;;;8.23;6.50;;;19.20;90.40;;;;;;4981869;28;20721;-49
2021/07/28 11:31:10;;;;;;;10.40;5.78;;;19.20;89.40;;;;;;4980932;28;20134;-53
2021/07/28 11:33:36;;;;;;;9.23;5.68;;;19.20;89.70;;;;;;4983684;28;20053;-50
2021/07/28 11:36:03;;;;;;;12.32;5.90;;;19.20;89.60;;;;;;4983108;28;20122;-54
2021/07/28 11:38:36;;;;;;;8.45;6.05;;;19.30;89.80;;;;;;4984634;28;20524;-54
2021/07/28 11:41:04;;;;;;;9.50;6.57;;;19.40;89.40;;;;;;4988801;28;20054;-50
2021/07/28 11:43:41;;;;;;;10.07;7.20;;;19.40;89.60;;;;;;4978512;28;20185;-52
2021/07/28 11:46:13;;;;;;;11.82;7.28;;;19.50;89.00;;;;;;4979527;28;20138;-53
2021/07/28 11:48:47;;;;;;;8.48;6.57;;;19.50;89.40;;;;;;4983838;28;20042;-52
2021/07/28 11:51:27;;;;;;;11.35;6.93;;;19.60;89.50;;;;;;4988473;28;20047;-54
2021/07/28 11:54:13;;;;;;;12.75;6.28;;;19.80;88.70;;;;;;4981926;28;20042;-54
2021/07/28 11:56:48;;;;;;;9.02;6.15;;;19.90;88.50;;;;;;4968665;28;20523;-51
2021/07/28 11:59:22;;;;;;;8.75;6.28;;;20.20;88.70;;;;;;4980373;28;20450;-49
2021/07/28 12:01:49;;;;;;;8.05;5.72;;;20.40;86.70;;;;;;4995905;28;20453;-49
2021/07/28 12:04:26;;;;;;;9.20;5.57;;;20.40;86.30;;;;;;4998838;28;20503;-51
2021/07/28 12:06:53;;;;;;;8.20;5.05;;;20.50;85.70;;;;;;4985040;28;20046;-52
2021/07/28 12:09:21;;;;;;;10.45;5.38;;;20.50;86.30;;;;;;4990297;28;20053;-51
2021/07/28 12:12:03;;;;;;;7.22;5.40;;;20.50;86.60;;;;;;4976569;28;20487;-54
2021/07/28 12:14:38;;;;;;;8.80;5.20;;;20.60;85.80;;;;;;4988393;28;20046;-52
2021/07/28 12:17:03;;;;;;;7.82;4.40;;;20.70;85.20;;;;;;4978987;28;20039;-52
2021/07/28 12:19:39;;;;;;;9.15;4.70;;;20.70;84.50;;;;;;4982948;28;20050;-51
2021/07/28 12:22:10;;;;;;;7.43;4.75;;;20.60;83.60;;;;;;4974756;28;20043;-51
2021/07/28 12:24:47;;;;;;;9.10;4.70;;;20.50;84.40;;;;;;4989673;28;20046;-51
2021/07/28 12:27:24;;;;;;;8.90;4.80;;;20.50;84.80;;;;;;4979081;28;20070;-52
2021/07/28 12:29:57;;;;;;;5.80;3.90;;;20.60;80.70;;;;;;4984793;28;20043;-52
2021/07/28 12:32:38;;;;;;;6.80;4.13;;;20.70;83.00;;;;;;4986408;28;20073;-52
2021/07/28 12:35:19;;;;;;;7.53;3.92;;;20.80;83.70;;;;;;4964985;28;20046;-51